createdAt,value
2023-02-19T00:00:25.237Z,100756.53
2023-02-19T00:02:56.116Z,100757.38
2023-02-19T00:05:25.514Z,100761.56
2023-02-19T00:07:54.949Z,100758.53
2023-02-19T00:10:24.387Z,100754.31
2023-02-19T00:12:56.438Z,100743.19
2023-02-19T00:15:25.912Z,100749.91
2023-02-19T00:17:55.350Z,100736.22
2023-02-19T00:20:24.831Z,100730.31
2023-02-19T00:22:54.274Z,100719.72
2023-02-19T00:25:23.698Z,100719.19
2023-02-19T00:27:55.745Z,100719.72
2023-02-19T00:30:25.870Z,100711.06
2023-02-19T00:32:55.504Z,100720.66
2023-02-19T00:35:25.280Z,100721.66
2023-02-19T00:37:54.673Z,100717.75
2023-02-19T00:40:26.103Z,100712.84
2023-02-19T00:42:58.797Z,100707.50
2023-02-19T00:45:28.464Z,100708.00
2023-02-19T00:47:57.973Z,100699.41
2023-02-19T00:50:27.635Z,100686.78
2023-02-19T00:52:57.125Z,100683.50
2023-02-19T00:55:26.545Z,100668.81
2023-02-19T00:57:58.566Z,100663.31
2023-02-19T01:00:27.982Z,100671.72
2023-02-19T01:02:57.408Z,100664.97
2023-02-19T01:05:28.610Z,100652.03
2023-02-19T01:07:58.026Z,100660.44
2023-02-19T01:10:27.613Z,100664.69
2023-02-19T01:12:59.617Z,100667.06
2023-02-19T01:15:29.043Z,100671.06
2023-02-19T01:17:58.433Z,100667.53
2023-02-19T01:20:28.252Z,100680.84
2023-02-19T01:22:58.049Z,100682.00
2023-02-19T01:25:27.458Z,100691.28
2023-02-19T01:27:59.408Z,100703.09
2023-02-19T01:30:28.819Z,100697.19
2023-02-19T01:32:58.319Z,100701.13
2023-02-19T01:35:28.013Z,100695.59
2023-02-19T01:37:57.486Z,100695.13
2023-02-19T01:40:27.505Z,100690.72
2023-02-19T01:42:59.470Z,100689.38
2023-02-19T01:45:31.480Z,100685.38
2023-02-19T01:48:06.851Z,100689.25
2023-02-19T01:50:41.428Z,100678.63
2023-02-19T01:53:12.569Z,100672.94
2023-02-19T01:55:43.306Z,100668.03
2023-02-19T01:58:15.515Z,100657.59
2023-02-19T02:00:45.287Z,100661.81
2023-02-19T02:03:16.242Z,100651.38
2023-02-19T02:05:53.106Z,100656.97
2023-02-19T02:08:35.560Z,100656.97
2023-02-19T02:11:06.048Z,100643.66
2023-02-19T02:13:40.418Z,100646.00
2023-02-19T02:16:23.131Z,100653.91
2023-02-19T02:19:01.911Z,100644.66
2023-02-19T02:21:56.160Z,100647.19
2023-02-19T02:24:44.253Z,100640.28
2023-02-19T02:27:41.950Z,100648.22
2023-02-19T02:30:32.241Z,100645.34
2023-02-19T02:33:09.125Z,100631.88
2023-02-19T02:35:46.509Z,100639.63
2023-02-19T02:38:17.939Z,100638.94
2023-02-19T02:40:48.096Z,100633.56
2023-02-19T02:43:18.553Z,100643.66
2023-02-19T02:45:50.814Z,100640.28
2023-02-19T02:48:46.137Z,100644.34
2023-02-19T02:51:22.984Z,100641.31
2023-02-19T02:54:16.889Z,100635.59
2023-02-19T02:56:49.291Z,100629.00
2023-02-19T02:59:22.641Z,100614.69
2023-02-19T03:02:10.744Z,100625.63
2023-02-19T03:05:03.177Z,100621.06
2023-02-19T03:07:36.810Z,100615.50
2023-02-19T03:10:10.591Z,100621.03
2023-02-19T03:12:55.960Z,100618.53
2023-02-19T03:15:42.820Z,100616.50
2023-02-19T03:18:29.272Z,100611.09
2023-02-19T03:21:01.253Z,100635.81
2023-02-19T03:23:48.363Z,100662.16
2023-02-19T03:26:20.804Z,100680.00
2023-02-19T03:29:08.662Z,100679.81
2023-02-19T03:31:42.700Z,100693.66
2023-02-19T03:34:19.966Z,100692.13
2023-02-19T03:36:56.746Z,100690.78
2023-02-19T03:39:27.299Z,100690.75
2023-02-19T03:42:05.184Z,100696.13
2023-02-19T03:44:43.481Z,100691.34
2023-02-19T03:47:19.791Z,100702.75
2023-02-19T03:49:57.673Z,100704.38
2023-02-19T03:52:40.013Z,100707.88
2023-02-19T03:55:14.317Z,100706.72
2023-02-19T03:57:52.269Z,100719.84
2023-02-19T04:00:29.948Z,100720.81
2023-02-19T04:03:06.220Z,100718.91
2023-02-19T04:05:42.633Z,100725.78
2023-02-19T04:08:16.877Z,100727.44
2023-02-19T04:10:53.301Z,100732.13
2023-02-19T04:13:26.763Z,100740.19
2023-02-19T04:16:00.280Z,100752.34
2023-02-19T04:18:34.189Z,100754.25
2023-02-19T04:21:09.047Z,100755.88
2023-02-19T04:23:43.289Z,100769.31
2023-02-19T04:26:14.772Z,100771.78
2023-02-19T04:28:44.789Z,100776.25
2023-02-19T04:31:14.878Z,100793.59
2023-02-19T04:33:44.465Z,100795.41
2023-02-19T04:36:16.469Z,100799.50
2023-02-19T04:38:45.842Z,100803.97
2023-02-19T04:41:15.281Z,100802.94
2023-02-19T04:43:44.689Z,100816.31
2023-02-19T04:46:14.149Z,100811.94
2023-02-19T04:48:44.442Z,100808.19
2023-02-19T04:51:16.440Z,100821.69
2023-02-19T04:53:45.830Z,100839.03
2023-02-19T04:56:17.718Z,100841.06
2023-02-19T04:58:47.729Z,100842.63
2023-02-19T05:01:17.693Z,100859.28
2023-02-19T05:03:47.540Z,100879.63
2023-02-19T05:06:19.723Z,100883.47
2023-02-19T05:08:49.327Z,100879.38
2023-02-19T05:11:18.882Z,100880.84
2023-02-19T05:13:48.301Z,100886.91
2023-02-19T05:16:18.752Z,100892.25
2023-02-19T05:18:49.042Z,100888.91
2023-02-19T05:21:21.126Z,100885.06
2023-02-19T05:23:50.565Z,100893.84
2023-02-19T05:26:23.229Z,100909.13
2023-02-19T05:28:54.758Z,100905.34
2023-02-19T05:31:24.727Z,100896.38
2023-02-19T05:33:54.317Z,100893.31
2023-02-19T05:36:26.847Z,100914.66
2023-02-19T05:38:57.740Z,100918.06
2023-02-19T05:41:29.052Z,100921.81
2023-02-19T05:43:59.674Z,100924.28
2023-02-19T05:46:31.078Z,100931.94
2023-02-19T05:49:01.183Z,100941.78
2023-02-19T05:51:33.263Z,100952.84
2023-02-19T05:54:02.734Z,100962.72
2023-02-19T05:56:37.098Z,100957.25
2023-02-19T05:59:09.721Z,100978.41
2023-02-19T06:01:39.615Z,100974.59
2023-02-19T06:04:09.426Z,100982.66
2023-02-19T06:06:41.669Z,100992.41
2023-02-19T06:09:12.372Z,100993.25
2023-02-19T06:11:43.458Z,101005.84
2023-02-19T06:14:14.950Z,101016.28
2023-02-19T06:16:44.708Z,101028.69
2023-02-19T06:19:14.217Z,101032.66
2023-02-19T06:21:46.700Z,101049.84
2023-02-19T06:24:16.445Z,101043.66
2023-02-19T06:26:46.598Z,101050.69
2023-02-19T06:29:16.043Z,101046.31
2023-02-19T06:31:46.255Z,101057.72
2023-02-19T06:34:15.902Z,101062.22
2023-02-19T06:36:48.116Z,101064.22
2023-02-19T06:39:17.697Z,101076.63
2023-02-19T06:41:47.588Z,101076.91
2023-02-19T06:44:17.130Z,101086.16
2023-02-19T06:46:46.651Z,101100.25
2023-02-19T06:49:16.205Z,101105.59
2023-02-19T06:51:48.207Z,101109.59
2023-02-19T06:54:17.725Z,101130.25
2023-02-19T06:56:47.426Z,101124.28
2023-02-19T06:59:19.507Z,101141.22
2023-02-19T07:01:49.284Z,101145.03
2023-02-19T07:04:19.069Z,101153.75
2023-02-19T07:06:51.207Z,101157.34
2023-02-19T07:09:20.675Z,101170.88
2023-02-19T07:11:50.237Z,101174.25
2023-02-19T07:14:20.974Z,101183.13
2023-02-19T07:16:51.300Z,101199.00
2023-02-19T07:19:20.813Z,101206.63
2023-02-19T07:21:52.799Z,101205.28
2023-02-19T07:24:22.766Z,101214.94
2023-02-19T07:26:52.120Z,101228.16
2023-02-19T07:29:21.659Z,101234.38
2023-02-19T07:31:51.161Z,101235.13
2023-02-19T07:34:20.917Z,101240.72
2023-02-19T07:36:52.939Z,101260.56
2023-02-19T07:39:22.475Z,101265.53
2023-02-19T07:41:51.868Z,101272.78
2023-02-19T07:44:29.004Z,101269.84
2023-02-19T07:46:58.488Z,101273.94
2023-02-19T07:49:28.768Z,101266.19
2023-02-19T07:52:00.896Z,101269.38
2023-02-19T07:54:30.822Z,101271.41
2023-02-19T07:57:00.353Z,101280.34
2023-02-19T07:59:29.793Z,101285.94
2023-02-19T08:02:11.746Z,101291.03
2023-02-19T08:04:41.505Z,101289.66
2023-02-19T08:07:13.534Z,101292.88
2023-02-19T08:09:43.069Z,101297.09
2023-02-19T08:12:26.788Z,101306.03
2023-02-19T08:14:56.241Z,101306.53
2023-02-19T08:17:26.443Z,101321.75
2023-02-19T08:19:56.190Z,101322.06
2023-02-19T08:22:28.533Z,101326.69
2023-02-19T08:24:58.182Z,101330.84
2023-02-19T08:27:27.717Z,101326.84
2023-02-19T08:29:57.214Z,101329.31
2023-02-19T08:32:26.621Z,101340.25
2023-02-19T08:34:56.036Z,101347.06
2023-02-19T08:37:28.181Z,101350.16
2023-02-19T08:39:57.669Z,101353.38
2023-02-19T08:42:27.192Z,101348.41
2023-02-19T08:44:56.743Z,101338.25
2023-02-19T08:47:26.293Z,101340.38
2023-02-19T08:49:55.754Z,101337.78
2023-02-19T08:52:27.821Z,101337.47
2023-02-19T08:54:57.326Z,101352.69
2023-02-19T08:57:28.111Z,101355.47
2023-02-19T08:59:57.644Z,101350.47
2023-02-19T09:02:27.881Z,101360.50
2023-02-19T09:04:57.444Z,101356.91
2023-02-19T09:07:30.041Z,101364.78
2023-02-19T09:09:59.497Z,101370.03
2023-02-19T09:12:29.677Z,101371.66
2023-02-19T09:14:59.352Z,101373.97
2023-02-19T09:17:28.844Z,101389.84
2023-02-19T09:19:58.283Z,101406.81
2023-02-19T09:22:30.243Z,101407.22
2023-02-19T09:24:59.659Z,101408.28
2023-02-19T09:27:31.734Z,101412.78
2023-02-19T09:30:01.345Z,101414.81
2023-02-19T09:32:33.697Z,101422.13
2023-02-19T09:35:03.108Z,101417.16
2023-02-19T09:37:35.154Z,101421.78
2023-02-19T09:40:04.602Z,101417.16
2023-02-19T09:42:35.895Z,101412.88
2023-02-19T09:45:08.023Z,101419.38
2023-02-19T09:47:37.709Z,101429.38
2023-02-19T09:50:10.843Z,101432.75
2023-02-19T09:52:48.458Z,101438.09
2023-02-19T09:55:20.753Z,101440.91
2023-02-19T09:57:51.082Z,101446.22
2023-02-19T10:00:25.335Z,101457.16
2023-02-19T10:02:57.834Z,101465.38
2023-02-19T10:05:28.821Z,101459.84
2023-02-19T10:08:01.494Z,101478.91
2023-02-19T10:10:32.814Z,101492.03
2023-02-19T10:13:14.023Z,101505.44
2023-02-19T10:15:49.619Z,101502.72
2023-02-19T10:18:21.428Z,101504.94
2023-02-19T10:20:52.394Z,101517.03
2023-02-19T10:23:25.078Z,101520.41
2023-02-19T10:25:57.235Z,101540.94
2023-02-19T10:28:31.259Z,101554.66
2023-02-19T10:31:02.563Z,101543.78
2023-02-19T10:33:32.254Z,101539.69
2023-02-19T10:36:04.045Z,101551.56
2023-02-19T10:38:38.156Z,101556.19
2023-02-19T10:41:10.493Z,101566.31
2023-02-19T10:43:42.855Z,101568.44
2023-02-19T10:46:20.238Z,101560.06
2023-02-19T10:48:54.967Z,101562.31
2023-02-19T10:51:33.200Z,101567.38
2023-02-19T10:54:20.177Z,101557.34
2023-02-19T10:56:49.721Z,101562.59
2023-02-19T10:59:27.257Z,101557.78
2023-02-19T11:01:57.999Z,101564.31
2023-02-19T11:04:29.231Z,101557.50
2023-02-19T11:06:59.461Z,101568.38
2023-02-19T11:09:40.309Z,101560.03
2023-02-19T11:12:11.336Z,101556.59
2023-02-19T11:14:45.221Z,101566.78
2023-02-19T11:17:26.477Z,101570.75
2023-02-19T11:19:57.748Z,101567.69
2023-02-19T11:22:34.113Z,101580.75
2023-02-19T11:25:10.303Z,101588.03
2023-02-19T11:27:56.410Z,101587.59
2023-02-19T11:30:45.198Z,101589.78
2023-02-19T11:33:28.929Z,101588.94
2023-02-19T11:36:19.697Z,101583.06
2023-02-19T11:38:49.218Z,101586.09
2023-02-19T11:41:32.646Z,101580.59
2023-02-19T11:44:17.112Z,101590.41
2023-02-19T11:46:56.944Z,101598.72
2023-02-19T11:49:38.433Z,101588.28
2023-02-19T11:52:19.817Z,101592.47
2023-02-19T11:54:54.625Z,101577.66
2023-02-19T11:57:43.154Z,101590.19
2023-02-19T12:00:27.109Z,101580.44
2023-02-19T12:03:28.222Z,101581.13
2023-02-19T12:06:11.665Z,101570.19
2023-02-19T12:09:00.938Z,101570.19
2023-02-19T12:11:47.463Z,101568.91
2023-02-19T12:14:48.094Z,101571.56
2023-02-19T12:17:29.524Z,101578.81
2023-02-19T12:20:13.228Z,101572.06
2023-02-19T12:22:48.594Z,101581.81
2023-02-19T12:25:44.747Z,101579.31
2023-02-19T12:28:34.251Z,101597.63
2023-02-19T12:31:28.053Z,101592.72
2023-02-19T12:34:24.972Z,101609.78
2023-02-19T12:37:06.077Z,101612.00
2023-02-19T12:39:42.804Z,101601.97
2023-02-19T12:42:23.420Z,101614.75
2023-02-19T12:44:57.752Z,101621.44
2023-02-19T12:47:34.873Z,101613.03
2023-02-19T12:50:10.949Z,101624.81
2023-02-19T12:52:46.337Z,101623.78
2023-02-19T12:55:23.910Z,101632.63
2023-02-19T12:57:54.157Z,101629.00
2023-02-19T13:00:35.097Z,101620.34
2023-02-19T13:03:17.730Z,101614.47
2023-02-19T13:05:52.578Z,101615.09
2023-02-19T13:08:29.199Z,101625.22
2023-02-19T13:11:03.612Z,101626.63
2023-02-19T13:13:38.591Z,101631.16
2023-02-19T13:16:15.110Z,101630.78
2023-02-19T13:18:57.643Z,101624.81
2023-02-19T13:21:42.843Z,101643.38
2023-02-19T13:27:20.553Z,101635.91
2023-02-19T13:30:09.823Z,101638.44
2023-02-19T13:32:56.748Z,101630.56
2023-02-19T13:35:55.759Z,101631.22
2023-02-19T13:38:26.049Z,101624.50
2023-02-19T13:40:57.063Z,101627.78
2023-02-19T13:43:29.420Z,101625.66
2023-02-19T13:46:05.457Z,101617.31
2023-02-19T13:48:37.086Z,101601.91
2023-02-19T13:51:52.104Z,101604.78
2023-02-19T13:54:30.215Z,101599.63
2023-02-19T13:57:29.200Z,101596.53
2023-02-19T14:00:00.213Z,101594.97
2023-02-19T14:02:35.245Z,101590.03
2023-02-19T14:05:08.941Z,101600.75
2023-02-19T14:07:57.094Z,101598.31
2023-02-19T14:11:05.163Z,101587.88
2023-02-19T14:14:06.894Z,101603.13
2023-02-19T14:16:52.863Z,101608.34
2023-02-19T14:19:51.505Z,101621.69
2023-02-19T14:23:02.887Z,101620.28
2023-02-19T14:25:38.306Z,101620.97
2023-02-19T14:28:16.177Z,101623.88
2023-02-19T14:30:52.087Z,101629.75
2023-02-19T14:33:24.780Z,101626.31
2023-02-19T14:35:58.152Z,101614.47
2023-02-19T14:38:31.178Z,101627.81
2023-02-19T14:41:01.342Z,101635.88
2023-02-19T14:43:32.140Z,101644.22
2023-02-19T14:46:10.107Z,101646.13
2023-02-19T14:48:44.385Z,101647.22
2023-02-19T14:51:19.061Z,101644.66
2023-02-19T14:53:49.070Z,101637.47
2023-02-19T14:56:23.952Z,101631.03
2023-02-19T14:59:09.847Z,101631.03
2023-02-19T15:01:42.655Z,101629.91
2023-02-19T15:04:23.829Z,101628.91
2023-02-19T15:06:56.703Z,101636.44
2023-02-19T15:09:31.261Z,101627.91
2023-02-19T15:12:02.795Z,101631.25
2023-02-19T15:14:33.358Z,101619.59
2023-02-19T15:17:07.956Z,101622.25
2023-02-19T15:19:39.694Z,101621.00
2023-02-19T15:22:09.141Z,101620.69
2023-02-19T15:24:38.909Z,101600.47
2023-02-19T15:27:08.417Z,101606.81
2023-02-19T15:29:47.262Z,101613.66
2023-02-19T15:32:24.031Z,101616.81
2023-02-19T15:34:58.628Z,101620.44
2023-02-19T15:37:31.198Z,101616.50
2023-02-19T15:40:03.008Z,101613.38
2023-02-19T15:42:34.994Z,101618.34
2023-02-19T15:45:08.383Z,101615.38
2023-02-19T15:47:43.495Z,101617.38
2023-02-19T15:50:19.156Z,101614.59
2023-02-19T15:52:53.069Z,101620.81
2023-02-19T15:55:31.359Z,101614.13
2023-02-19T15:58:08.638Z,101630.00
2023-02-19T16:00:43.202Z,101620.25
2023-02-19T16:03:21.591Z,101624.91
2023-02-19T16:06:04.442Z,101617.13
2023-02-19T16:08:35.155Z,101618.22
2023-02-19T16:11:07.301Z,101621.22
2023-02-19T16:13:37.769Z,101617.34
2023-02-19T16:16:16.976Z,101624.13
2023-02-19T16:18:54.408Z,101637.97
2023-02-19T16:21:26.387Z,101647.00
2023-02-19T16:24:07.735Z,101640.63
2023-02-19T16:26:42.758Z,101638.94
2023-02-19T16:29:22.065Z,101638.03
2023-02-19T16:31:53.511Z,101652.81
2023-02-19T16:34:34.480Z,101656.16
2023-02-19T16:37:05.189Z,101649.38
2023-02-19T16:39:35.157Z,101650.03
2023-02-19T16:42:17.269Z,101651.09
2023-02-19T16:44:47.584Z,101648.81
2023-02-19T16:47:23.296Z,101649.78
2023-02-19T16:49:55.686Z,101646.75
2023-02-19T16:52:25.139Z,101659.38
2023-02-19T16:54:54.495Z,101671.09
2023-02-19T16:57:23.900Z,101668.94
2023-02-19T16:59:53.302Z,101681.38
2023-02-19T17:02:26.695Z,101688.38
2023-02-19T17:04:58.930Z,101700.09
2023-02-19T17:07:28.605Z,101696.47
2023-02-19T17:09:57.993Z,101694.47
2023-02-19T17:12:27.381Z,101693.06
2023-02-19T17:14:56.807Z,101699.66
2023-02-19T17:17:26.220Z,101698.34
2023-02-19T17:19:58.274Z,101695.25
2023-02-19T17:22:27.759Z,101695.16
2023-02-19T17:24:57.168Z,101695.25
2023-02-19T17:27:26.600Z,101697.94
2023-02-19T17:29:56.160Z,101699.78
2023-02-19T17:32:25.662Z,101687.09
2023-02-19T17:34:57.714Z,101692.31
2023-02-19T17:37:27.284Z,101687.22
2023-02-19T17:39:56.672Z,101682.59
2023-02-19T17:42:26.205Z,101690.03
2023-02-19T17:44:55.673Z,101681.38
2023-02-19T17:47:25.110Z,101685.28
2023-02-19T17:49:55.700Z,101687.50
2023-02-19T17:52:29.346Z,101681.91
2023-02-19T17:54:58.739Z,101677.63
2023-02-19T17:57:33.398Z,101671.56
2023-02-19T18:00:04.573Z,101672.53
2023-02-19T18:02:41.932Z,101682.06
2023-02-19T18:05:11.805Z,101684.63
2023-02-19T18:07:43.750Z,101690.25
2023-02-19T18:10:13.924Z,101691.47
2023-02-19T18:12:43.285Z,101697.19
2023-02-19T18:15:18.557Z,101693.69
2023-02-19T18:17:48.074Z,101697.44
2023-02-19T18:20:18.874Z,101692.94
2023-02-19T18:22:50.822Z,101692.94
2023-02-19T18:25:22.137Z,101701.22
2023-02-19T18:27:52.160Z,101711.09
2023-02-19T18:30:22.985Z,101711.34
2023-02-19T18:32:53.522Z,101710.25
2023-02-19T18:35:23.834Z,101707.84
2023-02-19T18:37:56.894Z,101698.06
2023-02-19T18:40:28.722Z,101704.28
2023-02-19T18:42:58.845Z,101713.53
2023-02-19T18:45:29.768Z,101722.19
2023-02-19T18:47:59.257Z,101714.41
2023-02-19T18:50:28.726Z,101719.78
2023-02-19T18:53:00.727Z,101715.88
2023-02-19T18:55:30.252Z,101723.78
2023-02-19T18:57:59.671Z,101722.19
2023-02-19T19:00:29.158Z,101713.53
2023-02-19T19:02:59.686Z,101722.91
2023-02-19T19:05:29.853Z,101725.91
2023-02-19T19:08:01.946Z,101724.09
2023-02-19T19:10:32.270Z,101731.03
2023-02-19T19:13:02.414Z,101725.81
2023-02-19T19:15:31.945Z,101725.31
2023-02-19T19:18:02.793Z,101730.22
2023-02-19T19:20:32.322Z,101734.31
2023-02-19T19:23:04.913Z,101727.75
2023-02-19T19:25:34.377Z,101734.81
2023-02-19T19:28:03.902Z,101724.72
2023-02-19T19:30:33.894Z,101711.78
2023-02-19T19:33:03.655Z,101710.19
2023-02-19T19:35:33.045Z,101716.41
2023-02-19T19:38:05.446Z,101719.44
2023-02-19T19:40:34.925Z,101720.31
2023-02-19T19:43:05.960Z,101728.09
2023-02-19T19:45:35.423Z,101727.84
2023-02-19T19:48:05.778Z,101728.19
2023-02-19T19:50:35.251Z,101722.25
2023-02-19T19:53:07.272Z,101715.41
2023-02-19T19:55:36.689Z,101711.28
2023-02-19T19:58:06.199Z,101713.78
2023-02-19T20:00:35.594Z,101710.84
2023-02-19T20:03:05.618Z,101708.03
2023-02-19T20:05:35.251Z,101698.78
2023-02-19T20:08:07.754Z,101689.88
2023-02-19T20:10:37.145Z,101689.78
2023-02-19T20:13:06.974Z,101687.88
2023-02-19T20:15:36.524Z,101691.00
2023-02-19T20:18:06.303Z,101702.72
2023-02-19T20:20:35.986Z,101699.44
2023-02-19T20:23:08.108Z,101703.94
2023-02-19T20:25:38.014Z,101707.13
2023-02-19T20:28:07.954Z,101710.78
2023-02-19T20:30:37.733Z,101695.59
2023-02-19T20:33:07.428Z,101693.28
2023-02-19T20:35:36.926Z,101695.84
2023-02-19T20:38:09.392Z,101694.00
2023-02-19T20:40:38.890Z,101692.69
2023-02-19T20:43:08.511Z,101698.78
2023-02-19T20:45:37.920Z,101708.41
2023-02-19T20:48:07.422Z,101711.19
2023-02-19T20:50:36.861Z,101712.16
2023-02-19T20:53:09.079Z,101704.72
2023-02-19T20:55:38.586Z,101698.50
2023-02-19T20:58:08.872Z,101702.25
2023-02-19T21:00:38.397Z,101701.72
2023-02-19T21:03:09.098Z,101705.28
2023-02-19T21:05:39.928Z,101700.16
2023-02-19T21:08:14.106Z,101699.19
2023-02-19T21:10:43.653Z,101692.06
2023-02-19T21:13:13.088Z,101694.22
2023-02-19T21:15:42.758Z,101688.16
2023-02-19T21:18:12.366Z,101691.81
2023-02-19T21:20:41.807Z,101685.47
2023-02-19T21:23:13.998Z,101689.88
2023-02-19T21:25:43.393Z,101682.66
2023-02-19T21:28:13.293Z,101685.97
2023-02-19T21:30:42.889Z,101677.75
2023-02-19T21:33:12.732Z,101679.47
2023-02-19T21:35:42.230Z,101688.13
2023-02-19T21:38:14.248Z,101684.84
2023-02-19T21:40:43.722Z,101689.34
2023-02-19T21:43:13.085Z,101694.47
2023-02-19T21:45:42.821Z,101694.91
2023-02-19T21:48:12.322Z,101697.47
2023-02-19T21:50:45.449Z,101695.66
2023-02-19T21:53:18.277Z,101689.28
2023-02-19T21:55:58.425Z,101696.22
2023-02-19T21:58:28.395Z,101687.09
2023-02-19T22:00:58.271Z,101692.56
2023-02-19T22:03:27.773Z,101679.75
2023-02-19T22:05:57.469Z,101679.66
2023-02-19T22:08:31.850Z,101681.38
2023-02-19T22:11:02.371Z,101672.06
2023-02-19T22:13:31.786Z,101680.38
2023-02-19T22:16:02.331Z,101680.91
2023-02-19T22:18:31.854Z,101682.94
2023-02-19T22:21:02.340Z,101692.13
2023-02-19T22:23:34.633Z,101693.09
2023-02-19T22:26:04.110Z,101685.78
2023-02-19T22:28:33.589Z,101675.56
2023-02-19T22:31:03.033Z,101674.72
2023-02-19T22:33:32.487Z,101666.69
2023-02-19T22:36:02.334Z,101660.84
2023-02-19T22:38:34.786Z,101650.13
2023-02-19T22:41:05.282Z,101655.06
2023-02-19T22:43:34.684Z,101650.13
2023-02-19T22:46:05.112Z,101649.25
2023-02-19T22:48:34.584Z,101655.47
2023-02-19T22:51:04.072Z,101660.19
2023-02-19T22:53:36.144Z,101661.63
2023-02-19T22:56:05.736Z,101652.56
2023-02-19T22:58:35.129Z,101651.06
2023-02-19T23:01:04.574Z,101663.41
2023-02-19T23:03:34.056Z,101654.72
2023-02-19T23:06:05.867Z,101628.34
2023-02-19T23:08:37.850Z,101638.44
2023-02-19T23:11:07.294Z,101635.16
2023-02-19T23:13:36.726Z,101626.00
2023-02-19T23:16:06.698Z,101619.50
2023-02-19T23:18:36.190Z,101627.19
2023-02-19T23:21:05.642Z,101623.22
2023-02-19T23:23:35.039Z,101633.41
2023-02-19T23:26:08.374Z,101638.25
2023-02-19T23:28:37.872Z,101643.22
2023-02-19T23:31:07.949Z,101630.84
2023-02-19T23:33:37.980Z,101621.88
2023-02-19T23:36:08.076Z,101627.84
2023-02-19T23:38:37.524Z,101620.31
2023-02-19T23:41:11.957Z,101621.16
2023-02-19T23:43:41.481Z,101623.44
2023-02-19T23:46:12.006Z,101621.47
2023-02-19T23:48:41.635Z,101616.91
2023-02-19T23:51:11.101Z,101626.28
2023-02-19T23:53:40.530Z,101619.03
2023-02-19T23:56:12.862Z,101611.00
2023-02-19T23:58:42.471Z,101612.13
